sensor_id;sensor_type;location;lat;lon;timestamp;P1;durP1;ratioP1;P2;durP2;ratioP2
80653;SDS011;70020;45.524;10.240;2023-08-06T00:00:37;7.37;;;2.30;;
80653;SDS011;70020;45.524;10.240;2023-08-06T00:05:28;3.13;;;1.70;;
80653;SDS011;70020;45.524;10.240;2023-08-06T00:07:54;2.95;;;1.52;;
80653;SDS011;70020;45.524;10.240;2023-08-06T00:10:20;4.05;;;1.65;;
80653;SDS011;70020;45.524;10.240;2023-08-06T00:12:45;6.30;;;1.70;;
80653;SDS011;70020;45.524;10.240;2023-08-06T00:15:10;3.30;;;1.50;;
80653;SDS011;70020;45.524;10.240;2023-08-06T00:20:02;2.60;;;1.57;;
80653;SDS011;70020;45.524;10.240;2023-08-06T00:22:37;2.05;;;1.60;;
80653;SDS011;70020;45.524;10.240;2023-08-06T00:25:03;3.58;;;1.67;;
80653;SDS011;70020;45.524;10.240;2023-08-06T00:27:29;2.35;;;1.60;;
80653;SDS011;70020;45.524;10.240;2023-08-06T00:29:55;4.68;;;1.90;;
80653;SDS011;70020;45.524;10.240;2023-08-06T00:34:47;5.95;;;1.88;;
80653;SDS011;70020;45.524;10.240;2023-08-06T00:37:14;4.93;;;1.60;;
80653;SDS011;70020;45.524;10.240;2023-08-06T00:42:06;3.97;;;1.90;;
80653;SDS011;70020;45.524;10.240;2023-08-06T00:44:34;5.00;;;2.08;;
80653;SDS011;70020;45.524;10.240;2023-08-06T00:47:00;4.55;;;2.22;;
80653;SDS011;70020;45.524;10.240;2023-08-06T00:49:27;7.97;;;2.58;;
80653;SDS011;70020;45.524;10.240;2023-08-06T00:51:52;4.30;;;1.60;;
80653;SDS011;70020;45.524;10.240;2023-08-06T00:54:18;4.93;;;1.75;;
80653;SDS011;70020;45.524;10.240;2023-08-06T00:56:43;4.68;;;1.90;;
80653;SDS011;70020;45.524;10.240;2023-08-06T00:59:09;3.97;;;1.80;;
80653;SDS011;70020;45.524;10.240;2023-08-06T01:01:36;2.55;;;1.60;;
80653;SDS011;70020;45.524;10.240;2023-08-06T01:04:01;2.72;;;1.92;;
80653;SDS011;70020;45.524;10.240;2023-08-06T01:06:47;4.25;;;1.70;;
80653;SDS011;70020;45.524;10.240;2023-08-06T01:09:34;2.33;;;1.67;;
80653;SDS011;70020;45.524;10.240;2023-08-06T01:12:06;4.53;;;1.45;;
80653;SDS011;70020;45.524;10.240;2023-08-06T01:17:00;3.78;;;1.60;;
80653;SDS011;70020;45.524;10.240;2023-08-06T01:19:26;4.32;;;1.70;;
80653;SDS011;70020;45.524;10.240;2023-08-06T01:21:52;4.95;;;1.67;;
80653;SDS011;70020;45.524;10.240;2023-08-06T01:26:45;6.60;;;1.90;;
80653;SDS011;70020;45.524;10.240;2023-08-06T01:29:25;2.17;;;1.65;;
80653;SDS011;70020;45.524;10.240;2023-08-06T01:31:53;1.77;;;1.48;;
80653;SDS011;70020;45.524;10.240;2023-08-06T01:36:45;3.30;;;1.88;;
80653;SDS011;70020;45.524;10.240;2023-08-06T01:39:11;3.13;;;1.85;;
80653;SDS011;70020;45.524;10.240;2023-08-06T01:41:36;4.05;;;1.83;;
80653;SDS011;70020;45.524;10.240;2023-08-06T01:44:02;3.55;;;1.95;;
80653;SDS011;70020;45.524;10.240;2023-08-06T01:48:53;3.33;;;1.50;;
80653;SDS011;70020;45.524;10.240;2023-08-06T01:51:19;1.95;;;1.55;;
80653;SDS011;70020;45.524;10.240;2023-08-06T01:53:44;2.33;;;1.35;;
80653;SDS011;70020;45.524;10.240;2023-08-06T01:58:35;1.98;;;1.55;;
80653;SDS011;70020;45.524;10.240;2023-08-06T02:01:01;3.47;;;1.38;;
80653;SDS011;70020;45.524;10.240;2023-08-06T02:05:52;5.50;;;1.50;;
80653;SDS011;70020;45.524;10.240;2023-08-06T02:08:17;3.45;;;1.50;;
80653;SDS011;70020;45.524;10.240;2023-08-06T02:10:44;2.85;;;1.50;;
80653;SDS011;70020;45.524;10.240;2023-08-06T02:13:10;3.80;;;1.90;;
80653;SDS011;70020;45.524;10.240;2023-08-06T02:15:35;2.22;;;1.50;;
80653;SDS011;70020;45.524;10.240;2023-08-06T02:18:01;2.78;;;1.48;;
80653;SDS011;70020;45.524;10.240;2023-08-06T02:22:52;10.10;;;1.90;;
80653;SDS011;70020;45.524;10.240;2023-08-06T02:27:43;3.37;;;1.67;;
80653;SDS011;70020;45.524;10.240;2023-08-06T02:32:35;3.28;;;1.52;;
80653;SDS011;70020;45.524;10.240;2023-08-06T02:35:01;4.45;;;1.55;;
80653;SDS011;70020;45.524;10.240;2023-08-06T02:37:26;6.18;;;2.20;;
80653;SDS011;70020;45.524;10.240;2023-08-06T02:39:52;2.67;;;1.73;;
80653;SDS011;70020;45.524;10.240;2023-08-06T02:42:18;4.85;;;1.80;;
80653;SDS011;70020;45.524;10.240;2023-08-06T02:44:44;2.25;;;1.70;;
80653;SDS011;70020;45.524;10.240;2023-08-06T02:47:10;6.07;;;1.40;;
80653;SDS011;70020;45.524;10.240;2023-08-06T02:49:35;2.15;;;1.60;;
80653;SDS011;70020;45.524;10.240;2023-08-06T02:52:01;3.38;;;1.63;;
80653;SDS011;70020;45.524;10.240;2023-08-06T02:56:52;3.80;;;1.57;;
80653;SDS011;70020;45.524;10.240;2023-08-06T02:59:17;3.30;;;1.60;;
80653;SDS011;70020;45.524;10.240;2023-08-06T03:01:43;2.58;;;1.90;;
80653;SDS011;70020;45.524;10.240;2023-08-06T03:04:09;7.82;;;2.20;;
80653;SDS011;70020;45.524;10.240;2023-08-06T03:06:34;4.90;;;2.00;;
80653;SDS011;70020;45.524;10.240;2023-08-06T03:09:00;3.20;;;1.90;;
80653;SDS011;70020;45.524;10.240;2023-08-06T03:11:26;2.70;;;1.75;;
80653;SDS011;70020;45.524;10.240;2023-08-06T03:13:51;3.97;;;1.90;;
80653;SDS011;70020;45.524;10.240;2023-08-06T03:16:17;4.15;;;1.75;;
80653;SDS011;70020;45.524;10.240;2023-08-06T03:18:43;4.68;;;1.83;;
80653;SDS011;70020;45.524;10.240;2023-08-06T03:21:08;2.20;;;1.60;;
80653;SDS011;70020;45.524;10.240;2023-08-06T03:23:34;2.80;;;1.60;;
80653;SDS011;70020;45.524;10.240;2023-08-06T03:26:03;3.28;;;1.60;;
80653;SDS011;70020;45.524;10.240;2023-08-06T03:28:28;5.97;;;1.75;;
80653;SDS011;70020;45.524;10.240;2023-08-06T03:31:01;4.13;;;1.50;;
80653;SDS011;70020;45.524;10.240;2023-08-06T03:33:28;2.85;;;1.73;;
80653;SDS011;70020;45.524;10.240;2023-08-06T03:35:53;3.37;;;1.60;;
80653;SDS011;70020;45.524;10.240;2023-08-06T03:38:18;3.13;;;1.35;;
80653;SDS011;70020;45.524;10.240;2023-08-06T03:40:45;3.70;;;1.60;;
80653;SDS011;70020;45.524;10.240;2023-08-06T03:43:11;4.63;;;1.52;;
80653;SDS011;70020;45.524;10.240;2023-08-06T03:48:03;4.57;;;1.80;;
80653;SDS011;70020;45.524;10.240;2023-08-06T03:50:28;3.53;;;1.60;;
80653;SDS011;70020;45.524;10.240;2023-08-06T03:52:54;1.80;;;1.58;;
80653;SDS011;70020;45.524;10.240;2023-08-06T03:55:20;6.57;;;1.80;;
80653;SDS011;70020;45.524;10.240;2023-08-06T03:57:45;2.35;;;1.70;;
80653;SDS011;70020;45.524;10.240;2023-08-06T04:00:11;5.80;;;1.70;;
80653;SDS011;70020;45.524;10.240;2023-08-06T04:02:37;5.53;;;1.58;;
80653;SDS011;70020;45.524;10.240;2023-08-06T04:05:03;3.97;;;1.55;;
80653;SDS011;70020;45.524;10.240;2023-08-06T04:07:28;2.90;;;1.70;;
80653;SDS011;70020;45.524;10.240;2023-08-06T04:09:55;3.20;;;1.70;;
80653;SDS011;70020;45.524;10.240;2023-08-06T04:14:46;3.47;;;1.50;;
80653;SDS011;70020;45.524;10.240;2023-08-06T04:17:11;4.38;;;1.70;;
80653;SDS011;70020;45.524;10.240;2023-08-06T04:19:37;3.92;;;1.60;;
80653;SDS011;70020;45.524;10.240;2023-08-06T04:22:03;3.47;;;1.65;;
80653;SDS011;70020;45.524;10.240;2023-08-06T04:24:29;6.38;;;1.83;;
80653;SDS011;70020;45.524;10.240;2023-08-06T04:26:54;21.27;;;5.57;;
80653;SDS011;70020;45.524;10.240;2023-08-06T04:29:20;5.18;;;1.77;;
80653;SDS011;70020;45.524;10.240;2023-08-06T04:31:45;5.70;;;1.60;;
80653;SDS011;70020;45.524;10.240;2023-08-06T04:34:11;2.10;;;1.42;;
80653;SDS011;70020;45.524;10.240;2023-08-06T04:36:36;2.80;;;1.90;;
80653;SDS011;70020;45.524;10.240;2023-08-06T04:39:03;4.40;;;1.80;;
80653;SDS011;70020;45.524;10.240;2023-08-06T04:41:29;2.53;;;1.50;;
80653;SDS011;70020;45.524;10.240;2023-08-06T04:43:56;5.55;;;1.90;;
80653;SDS011;70020;45.524;10.240;2023-08-06T04:46:22;4.13;;;1.60;;
80653;SDS011;70020;45.524;10.240;2023-08-06T04:48:47;3.95;;;1.60;;
80653;SDS011;70020;45.524;10.240;2023-08-06T04:51:13;4.82;;;1.60;;
80653;SDS011;70020;45.524;10.240;2023-08-06T04:53:41;2.50;;;1.67;;
80653;SDS011;70020;45.524;10.240;2023-08-06T04:56:07;7.65;;;2.30;;
80653;SDS011;70020;45.524;10.240;2023-08-06T04:58:32;2.92;;;1.60;;
80653;SDS011;70020;45.524;10.240;2023-08-06T05:00:58;4.25;;;1.75;;
80653;SDS011;70020;45.524;10.240;2023-08-06T05:03:24;6.15;;;1.83;;
80653;SDS011;70020;45.524;10.240;2023-08-06T05:05:49;3.05;;;1.75;;
80653;SDS011;70020;45.524;10.240;2023-08-06T05:08:15;11.37;;;2.40;;
80653;SDS011;70020;45.524;10.240;2023-08-06T05:10:42;4.85;;;1.70;;
80653;SDS011;70020;45.524;10.240;2023-08-06T05:13:08;7.05;;;2.08;;
80653;SDS011;70020;45.524;10.240;2023-08-06T05:15:33;3.10;;;1.60;;
80653;SDS011;70020;45.524;10.240;2023-08-06T05:18:00;5.85;;;1.85;;
80653;SDS011;70020;45.524;10.240;2023-08-06T05:20:25;4.18;;;2.08;;
80653;SDS011;70020;45.524;10.240;2023-08-06T05:22:51;4.93;;;2.05;;
80653;SDS011;70020;45.524;10.240;2023-08-06T05:25:16;3.97;;;1.95;;
80653;SDS011;70020;45.524;10.240;2023-08-06T05:27:42;3.17;;;1.80;;
80653;SDS011;70020;45.524;10.240;2023-08-06T05:30:08;4.53;;;1.85;;
80653;SDS011;70020;45.524;10.240;2023-08-06T05:32:34;3.15;;;1.83;;
80653;SDS011;70020;45.524;10.240;2023-08-06T05:34:59;2.72;;;1.95;;
80653;SDS011;70020;45.524;10.240;2023-08-06T05:37:24;3.00;;;2.00;;
80653;SDS011;70020;45.524;10.240;2023-08-06T05:39:50;2.97;;;1.65;;
80653;SDS011;70020;45.524;10.240;2023-08-06T05:42:16;4.80;;;2.08;;
80653;SDS011;70020;45.524;10.240;2023-08-06T05:44:41;2.90;;;1.60;;
80653;SDS011;70020;45.524;10.240;2023-08-06T05:47:07;3.85;;;1.88;;
80653;SDS011;70020;45.524;10.240;2023-08-06T05:49:32;10.35;;;2.25;;
80653;SDS011;70020;45.524;10.240;2023-08-06T05:51:58;2.40;;;1.70;;
80653;SDS011;70020;45.524;10.240;2023-08-06T05:54:23;4.77;;;1.90;;
80653;SDS011;70020;45.524;10.240;2023-08-06T05:56:49;5.03;;;2.22;;
80653;SDS011;70020;45.524;10.240;2023-08-06T06:01:40;3.65;;;1.83;;
80653;SDS011;70020;45.524;10.240;2023-08-06T06:06:35;6.35;;;2.30;;
80653;SDS011;70020;45.524;10.240;2023-08-06T06:09:00;4.70;;;2.38;;
80653;SDS011;70020;45.524;10.240;2023-08-06T06:11:26;5.18;;;2.72;;
80653;SDS011;70020;45.524;10.240;2023-08-06T06:13:52;7.43;;;2.35;;
80653;SDS011;70020;45.524;10.240;2023-08-06T06:16:18;7.30;;;2.30;;
80653;SDS011;70020;45.524;10.240;2023-08-06T06:18:44;3.85;;;2.20;;
80653;SDS011;70020;45.524;10.240;2023-08-06T06:21:10;7.60;;;2.58;;
80653;SDS011;70020;45.524;10.240;2023-08-06T06:26:01;3.77;;;2.60;;
80653;SDS011;70020;45.524;10.240;2023-08-06T06:28:26;6.93;;;2.08;;
80653;SDS011;70020;45.524;10.240;2023-08-06T06:30:52;7.85;;;2.15;;
80653;SDS011;70020;45.524;10.240;2023-08-06T06:33:18;4.10;;;2.03;;
80653;SDS011;70020;45.524;10.240;2023-08-06T06:35:44;4.05;;;1.88;;
80653;SDS011;70020;45.524;10.240;2023-08-06T06:38:09;4.47;;;2.25;;
80653;SDS011;70020;45.524;10.240;2023-08-06T06:40:35;2.90;;;1.80;;
80653;SDS011;70020;45.524;10.240;2023-08-06T06:43:00;3.67;;;2.23;;
80653;SDS011;70020;45.524;10.240;2023-08-06T06:47:51;3.33;;;1.92;;
80653;SDS011;70020;45.524;10.240;2023-08-06T06:50:19;2.55;;;1.90;;
80653;SDS011;70020;45.524;10.240;2023-08-06T06:52:44;2.55;;;2.03;;
80653;SDS011;70020;45.524;10.240;2023-08-06T06:55:09;2.63;;;2.20;;
80653;SDS011;70020;45.524;10.240;2023-08-06T07:00:00;7.27;;;2.30;;
80653;SDS011;70020;45.524;10.240;2023-08-06T07:04:51;7.68;;;2.20;;
80653;SDS011;70020;45.524;10.240;2023-08-06T07:07:17;6.65;;;2.45;;
80653;SDS011;70020;45.524;10.240;2023-08-06T07:12:08;3.67;;;2.67;;
80653;SDS011;70020;45.524;10.240;2023-08-06T07:14:34;6.30;;;3.08;;
80653;SDS011;70020;45.524;10.240;2023-08-06T07:19:25;8.90;;;3.30;;
80653;SDS011;70020;45.524;10.240;2023-08-06T07:21:51;4.75;;;3.40;;
80653;SDS011;70020;45.524;10.240;2023-08-06T07:24:16;4.17;;;3.30;;
80653;SDS011;70020;45.524;10.240;2023-08-06T07:26:43;5.07;;;2.80;;
80653;SDS011;70020;45.524;10.240;2023-08-06T07:29:08;4.93;;;3.40;;
80653;SDS011;70020;45.524;10.240;2023-08-06T07:31:34;2.93;;;2.13;;
80653;SDS011;70020;45.524;10.240;2023-08-06T07:33:59;4.38;;;3.45;;
80653;SDS011;70020;45.524;10.240;2023-08-06T07:38:50;7.18;;;3.03;;
80653;SDS011;70020;45.524;10.240;2023-08-06T07:41:20;7.97;;;3.83;;
80653;SDS011;70020;45.524;10.240;2023-08-06T07:43:46;7.70;;;4.00;;
80653;SDS011;70020;45.524;10.240;2023-08-06T07:46:12;4.63;;;3.42;;
80653;SDS011;70020;45.524;10.240;2023-08-06T07:51:03;6.05;;;3.25;;
80653;SDS011;70020;45.524;10.240;2023-08-06T07:53:28;6.70;;;3.13;;
80653;SDS011;70020;45.524;10.240;2023-08-06T07:55:57;5.70;;;3.40;;
80653;SDS011;70020;45.524;10.240;2023-08-06T08:00:47;7.17;;;3.40;;
80653;SDS011;70020;45.524;10.240;2023-08-06T08:05:41;5.45;;;3.30;;
80653;SDS011;70020;45.524;10.240;2023-08-06T08:10:32;4.60;;;3.37;;
80653;SDS011;70020;45.524;10.240;2023-08-06T08:15:24;5.45;;;3.78;;
80653;SDS011;70020;45.524;10.240;2023-08-06T08:17:51;9.45;;;3.85;;
80653;SDS011;70020;45.524;10.240;2023-08-06T08:22:42;4.88;;;3.38;;
80653;SDS011;70020;45.524;10.240;2023-08-06T08:27:32;5.43;;;4.07;;
80653;SDS011;70020;45.524;10.240;2023-08-06T08:32:24;7.32;;;3.20;;
80653;SDS011;70020;45.524;10.240;2023-08-06T08:34:50;5.20;;;3.63;;
80653;SDS011;70020;45.524;10.240;2023-08-06T08:39:41;8.98;;;3.75;;
80653;SDS011;70020;45.524;10.240;2023-08-06T08:44:32;6.10;;;2.87;;
80653;SDS011;70020;45.524;10.240;2023-08-06T08:46:58;5.18;;;3.35;;
80653;SDS011;70020;45.524;10.240;2023-08-06T08:51:49;5.10;;;2.95;;
80653;SDS011;70020;45.524;10.240;2023-08-06T08:54:16;7.60;;;3.83;;
80653;SDS011;70020;45.524;10.240;2023-08-06T08:56:43;4.05;;;2.92;;
80653;SDS011;70020;45.524;10.240;2023-08-06T08:59:09;6.22;;;3.20;;
80653;SDS011;70020;45.524;10.240;2023-08-06T09:01:35;4.45;;;2.17;;
80653;SDS011;70020;45.524;10.240;2023-08-06T09:04:05;3.35;;;2.97;;
80653;SDS011;70020;45.524;10.240;2023-08-06T09:09:08;4.10;;;2.60;;
80653;SDS011;70020;45.524;10.240;2023-08-06T09:11:35;3.33;;;2.22;;
80653;SDS011;70020;45.524;10.240;2023-08-06T09:14:06;4.22;;;2.78;;
80653;SDS011;70020;45.524;10.240;2023-08-06T09:16:32;4.28;;;2.60;;
80653;SDS011;70020;45.524;10.240;2023-08-06T09:19:06;5.55;;;2.10;;
80653;SDS011;70020;45.524;10.240;2023-08-06T09:21:31;4.50;;;2.60;;
80653;SDS011;70020;45.524;10.240;2023-08-06T09:26:22;4.47;;;2.30;;
80653;SDS011;70020;45.524;10.240;2023-08-06T09:28:49;4.32;;;2.20;;
80653;SDS011;70020;45.524;10.240;2023-08-06T09:31:17;3.47;;;2.30;;
80653;SDS011;70020;45.524;10.240;2023-08-06T09:36:10;4.87;;;2.33;;
80653;SDS011;70020;45.524;10.240;2023-08-06T09:41:01;3.15;;;2.20;;
80653;SDS011;70020;45.524;10.240;2023-08-06T09:43:27;8.43;;;2.40;;
80653;SDS011;70020;45.524;10.240;2023-08-06T09:48:18;4.75;;;3.03;;
80653;SDS011;70020;45.524;10.240;2023-08-06T09:50:44;4.68;;;2.70;;
80653;SDS011;70020;45.524;10.240;2023-08-06T09:53:10;5.82;;;2.40;;
80653;SDS011;70020;45.524;10.240;2023-08-06T09:55:36;4.07;;;2.10;;
80653;SDS011;70020;45.524;10.240;2023-08-06T10:00:27;4.00;;;2.30;;
80653;SDS011;70020;45.524;10.240;2023-08-06T10:02:54;3.20;;;1.88;;
80653;SDS011;70020;45.524;10.240;2023-08-06T10:05:21;3.97;;;1.80;;
80653;SDS011;70020;45.524;10.240;2023-08-06T10:07:47;4.05;;;1.50;;
80653;SDS011;70020;45.524;10.240;2023-08-06T10:10:14;2.65;;;1.65;;
80653;SDS011;70020;45.524;10.240;2023-08-06T10:15:06;1.70;;;1.58;;
80653;SDS011;70020;45.524;10.240;2023-08-06T10:17:33;1.77;;;1.40;;
80653;SDS011;70020;45.524;10.240;2023-08-06T10:22:24;2.20;;;1.50;;
80653;SDS011;70020;45.524;10.240;2023-08-06T10:24:55;1.85;;;1.50;;
80653;SDS011;70020;45.524;10.240;2023-08-06T10:27:28;2.42;;;1.38;;
80653;SDS011;70020;45.524;10.240;2023-08-06T10:29:55;1.83;;;1.58;;
80653;SDS011;70020;45.524;10.240;2023-08-06T10:32:20;2.33;;;1.40;;
80653;SDS011;70020;45.524;10.240;2023-08-06T10:34:53;4.05;;;1.30;;
80653;SDS011;70020;45.524;10.240;2023-08-06T10:37:20;2.72;;;1.40;;
80653;SDS011;70020;45.524;10.240;2023-08-06T10:39:50;1.75;;;1.50;;
80653;SDS011;70020;45.524;10.240;2023-08-06T10:42:20;2.35;;;1.48;;
80653;SDS011;70020;45.524;10.240;2023-08-06T10:47:30;5.65;;;1.80;;
80653;SDS011;70020;45.524;10.240;2023-08-06T10:49:55;1.77;;;1.30;;
80653;SDS011;70020;45.524;10.240;2023-08-06T10:52:22;1.95;;;1.25;;
80653;SDS011;70020;45.524;10.240;2023-08-06T10:54:48;2.33;;;1.42;;
80653;SDS011;70020;45.524;10.240;2023-08-06T10:57:14;1.67;;;1.30;;
80653;SDS011;70020;45.524;10.240;2023-08-06T10:59:40;4.20;;;1.75;;
80653;SDS011;70020;45.524;10.240;2023-08-06T11:02:05;1.75;;;1.17;;
80653;SDS011;70020;45.524;10.240;2023-08-06T11:04:31;2.28;;;1.30;;
80653;SDS011;70020;45.524;10.240;2023-08-06T11:06:57;3.55;;;1.38;;
80653;SDS011;70020;45.524;10.240;2023-08-06T11:09:23;2.05;;;1.10;;
80653;SDS011;70020;45.524;10.240;2023-08-06T11:11:48;3.80;;;1.20;;
80653;SDS011;70020;45.524;10.240;2023-08-06T11:14:15;2.50;;;1.40;;
80653;SDS011;70020;45.524;10.240;2023-08-06T11:16:40;1.75;;;1.10;;
80653;SDS011;70020;45.524;10.240;2023-08-06T11:19:07;2.77;;;1.33;;
80653;SDS011;70020;45.524;10.240;2023-08-06T11:21:33;1.65;;;1.00;;
80653;SDS011;70020;45.524;10.240;2023-08-06T11:23:58;3.00;;;1.07;;
80653;SDS011;70020;45.524;10.240;2023-08-06T11:26:23;1.13;;;1.00;;
80653;SDS011;70020;45.524;10.240;2023-08-06T11:28:49;2.70;;;1.30;;
80653;SDS011;70020;45.524;10.240;2023-08-06T11:31:24;2.05;;;1.27;;
80653;SDS011;70020;45.524;10.240;2023-08-06T11:33:50;1.52;;;1.08;;
80653;SDS011;70020;45.524;10.240;2023-08-06T11:36:16;2.80;;;1.02;;
80653;SDS011;70020;45.524;10.240;2023-08-06T11:38:53;1.95;;;1.15;;
80653;SDS011;70020;45.524;10.240;2023-08-06T11:41:19;6.15;;;1.30;;
80653;SDS011;70020;45.524;10.240;2023-08-06T11:43:45;2.50;;;1.05;;
80653;SDS011;70020;45.524;10.240;2023-08-06T11:46:11;10.60;;;1.45;;
80653;SDS011;70020;45.524;10.240;2023-08-06T11:48:55;3.13;;;1.05;;
80653;SDS011;70020;45.524;10.240;2023-08-06T11:51:24;1.58;;;1.00;;
80653;SDS011;70020;45.524;10.240;2023-08-06T11:53:59;2.55;;;1.02;;
80653;SDS011;70020;45.524;10.240;2023-08-06T11:56:25;1.20;;;1.00;;
80653;SDS011;70020;45.524;10.240;2023-08-06T11:58:56;1.08;;;0.98;;
80653;SDS011;70020;45.524;10.240;2023-08-06T12:01:21;3.40;;;1.20;;
80653;SDS011;70020;45.524;10.240;2023-08-06T12:03:47;1.73;;;1.02;;
80653;SDS011;70020;45.524;10.240;2023-08-06T12:06:13;1.65;;;1.10;;
80653;SDS011;70020;45.524;10.240;2023-08-06T12:08:39;2.55;;;0.90;;
80653;SDS011;70020;45.524;10.240;2023-08-06T12:11:06;2.17;;;0.95;;
80653;SDS011;70020;45.524;10.240;2023-08-06T12:13:32;1.52;;;1.10;;
80653;SDS011;70020;45.524;10.240;2023-08-06T12:15:57;3.70;;;0.90;;
80653;SDS011;70020;45.524;10.240;2023-08-06T12:18:25;1.40;;;1.00;;
80653;SDS011;70020;45.524;10.240;2023-08-06T12:20:51;3.05;;;1.15;;
80653;SDS011;70020;45.524;10.240;2023-08-06T12:23:17;1.10;;;0.93;;
80653;SDS011;70020;45.524;10.240;2023-08-06T12:25:43;2.80;;;1.33;;
80653;SDS011;70020;45.524;10.240;2023-08-06T12:28:09;2.90;;;1.48;;
80653;SDS011;70020;45.524;10.240;2023-08-06T12:30:35;1.85;;;0.90;;
80653;SDS011;70020;45.524;10.240;2023-08-06T12:33:01;1.65;;;1.05;;
80653;SDS011;70020;45.524;10.240;2023-08-06T12:35:26;2.40;;;1.10;;
80653;SDS011;70020;45.524;10.240;2023-08-06T12:37:52;1.90;;;0.82;;
80653;SDS011;70020;45.524;10.240;2023-08-06T12:40:19;3.03;;;0.85;;
80653;SDS011;70020;45.524;10.240;2023-08-06T12:42:45;1.70;;;0.95;;
80653;SDS011;70020;45.524;10.240;2023-08-06T12:45:11;1.63;;;1.00;;
80653;SDS011;70020;45.524;10.240;2023-08-06T12:47:36;2.10;;;0.90;;
80653;SDS011;70020;45.524;10.240;2023-08-06T12:50:02;2.57;;;1.07;;
80653;SDS011;70020;45.524;10.240;2023-08-06T12:52:28;1.67;;;0.90;;
80653;SDS011;70020;45.524;10.240;2023-08-06T12:54:54;2.33;;;1.00;;
80653;SDS011;70020;45.524;10.240;2023-08-06T12:57:19;1.00;;;0.80;;
80653;SDS011;70020;45.524;10.240;2023-08-06T12:59:45;1.08;;;0.80;;
80653;SDS011;70020;45.524;10.240;2023-08-06T13:02:10;1.40;;;1.00;;
80653;SDS011;70020;45.524;10.240;2023-08-06T13:04:36;1.20;;;0.90;;
80653;SDS011;70020;45.524;10.240;2023-08-06T13:07:02;2.53;;;1.05;;
80653;SDS011;70020;45.524;10.240;2023-08-06T13:09:27;1.38;;;1.20;;
80653;SDS011;70020;45.524;10.240;2023-08-06T13:11:53;3.47;;;1.52;;
80653;SDS011;70020;45.524;10.240;2023-08-06T13:14:19;0.82;;;0.82;;
80653;SDS011;70020;45.524;10.240;2023-08-06T13:16:44;1.23;;;0.80;;
80653;SDS011;70020;45.524;10.240;2023-08-06T13:19:10;1.10;;;1.00;;
80653;SDS011;70020;45.524;10.240;2023-08-06T13:24:06;2.55;;;0.90;;
80653;SDS011;70020;45.524;10.240;2023-08-06T13:26:32;1.50;;;0.90;;
80653;SDS011;70020;45.524;10.240;2023-08-06T13:28:58;1.20;;;1.10;;
80653;SDS011;70020;45.524;10.240;2023-08-06T13:31:23;1.40;;;1.00;;
80653;SDS011;70020;45.524;10.240;2023-08-06T13:33:49;1.02;;;0.93;;
80653;SDS011;70020;45.524;10.240;2023-08-06T13:36:15;1.42;;;1.00;;
80653;SDS011;70020;45.524;10.240;2023-08-06T13:38:41;3.47;;;0.80;;
80653;SDS011;70020;45.524;10.240;2023-08-06T13:41:07;2.70;;;0.90;;
80653;SDS011;70020;45.524;10.240;2023-08-06T13:43:33;1.25;;;0.93;;
80653;SDS011;70020;45.524;10.240;2023-08-06T13:45:58;2.08;;;0.90;;
80653;SDS011;70020;45.524;10.240;2023-08-06T13:48:24;1.75;;;1.00;;
80653;SDS011;70020;45.524;10.240;2023-08-06T13:50:50;2.55;;;0.77;;
80653;SDS011;70020;45.524;10.240;2023-08-06T13:53:15;0.85;;;0.70;;
80653;SDS011;70020;45.524;10.240;2023-08-06T13:55:41;1.35;;;0.90;;
80653;SDS011;70020;45.524;10.240;2023-08-06T13:58:07;0.95;;;0.85;;
80653;SDS011;70020;45.524;10.240;2023-08-06T14:00:33;1.10;;;0.80;;
80653;SDS011;70020;45.524;10.240;2023-08-06T14:02:58;2.17;;;0.70;;
80653;SDS011;70020;45.524;10.240;2023-08-06T14:05:27;1.27;;;0.70;;
80653;SDS011;70020;45.524;10.240;2023-08-06T14:07:53;0.98;;;0.73;;
80653;SDS011;70020;45.524;10.240;2023-08-06T14:10:19;1.45;;;0.57;;
80653;SDS011;70020;45.524;10.240;2023-08-06T14:12:44;2.00;;;0.60;;
80653;SDS011;70020;45.524;10.240;2023-08-06T14:15:10;0.60;;;0.60;;
80653;SDS011;70020;45.524;10.240;2023-08-06T14:17:35;0.98;;;0.77;;
80653;SDS011;70020;45.524;10.240;2023-08-06T14:20:01;3.07;;;0.90;;
80653;SDS011;70020;45.524;10.240;2023-08-06T14:22:28;0.60;;;0.60;;
80653;SDS011;70020;45.524;10.240;2023-08-06T14:24:55;2.88;;;0.93;;
80653;SDS011;70020;45.524;10.240;2023-08-06T14:27:21;0.70;;;0.70;;
80653;SDS011;70020;45.524;10.240;2023-08-06T14:29:46;0.50;;;0.50;;
80653;SDS011;70020;45.524;10.240;2023-08-06T14:32:12;1.35;;;0.80;;
80653;SDS011;70020;45.524;10.240;2023-08-06T14:34:38;0.55;;;0.55;;
80653;SDS011;70020;45.524;10.240;2023-08-06T14:37:04;0.73;;;0.60;;
80653;SDS011;70020;45.524;10.240;2023-08-06T14:39:29;1.67;;;0.77;;
80653;SDS011;70020;45.524;10.240;2023-08-06T14:41:55;1.27;;;0.80;;
80653;SDS011;70020;45.524;10.240;2023-08-06T14:44:21;0.57;;;0.57;;
80653;SDS011;70020;45.524;10.240;2023-08-06T14:46:46;3.22;;;0.63;;
80653;SDS011;70020;45.524;10.240;2023-08-06T14:49:12;0.95;;;0.60;;
80653;SDS011;70020;45.524;10.240;2023-08-06T14:51:37;0.90;;;0.67;;
80653;SDS011;70020;45.524;10.240;2023-08-06T14:54:03;0.40;;;0.40;;
80653;SDS011;70020;45.524;10.240;2023-08-06T14:56:30;1.15;;;0.70;;
80653;SDS011;70020;45.524;10.240;2023-08-06T14:58:55;0.82;;;0.63;;
80653;SDS011;70020;45.524;10.240;2023-08-06T15:01:21;1.15;;;0.75;;
80653;SDS011;70020;45.524;10.240;2023-08-06T15:03:47;2.40;;;0.70;;
80653;SDS011;70020;45.524;10.240;2023-08-06T15:06:13;0.50;;;0.50;;
80653;SDS011;70020;45.524;10.240;2023-08-06T15:08:38;0.93;;;0.45;;
80653;SDS011;70020;45.524;10.240;2023-08-06T15:11:04;0.73;;;0.63;;
80653;SDS011;70020;45.524;10.240;2023-08-06T15:13:30;2.25;;;0.63;;
80653;SDS011;70020;45.524;10.240;2023-08-06T15:15:55;4.75;;;0.80;;
80653;SDS011;70020;45.524;10.240;2023-08-06T15:18:20;1.47;;;0.57;;
80653;SDS011;70020;45.524;10.240;2023-08-06T15:20:46;1.23;;;0.43;;
80653;SDS011;70020;45.524;10.240;2023-08-06T15:23:11;2.90;;;0.80;;
80653;SDS011;70020;45.524;10.240;2023-08-06T15:25:37;1.30;;;0.50;;
80653;SDS011;70020;45.524;10.240;2023-08-06T15:28:02;0.65;;;0.60;;
80653;SDS011;70020;45.524;10.240;2023-08-06T15:30:28;0.50;;;0.40;;
80653;SDS011;70020;45.524;10.240;2023-08-06T15:32:54;2.92;;;0.60;;
80653;SDS011;70020;45.524;10.240;2023-08-06T15:35:20;2.05;;;0.70;;
80653;SDS011;70020;45.524;10.240;2023-08-06T15:37:45;2.00;;;0.50;;
80653;SDS011;70020;45.524;10.240;2023-08-06T15:40:11;3.20;;;0.68;;
80653;SDS011;70020;45.524;10.240;2023-08-06T15:42:36;5.15;;;0.70;;
80653;SDS011;70020;45.524;10.240;2023-08-06T15:45:02;3.88;;;0.65;;
80653;SDS011;70020;45.524;10.240;2023-08-06T15:47:28;1.70;;;0.65;;
80653;SDS011;70020;45.524;10.240;2023-08-06T15:49:54;2.85;;;0.70;;
80653;SDS011;70020;45.524;10.240;2023-08-06T15:52:19;2.60;;;0.60;;
80653;SDS011;70020;45.524;10.240;2023-08-06T15:54:44;1.57;;;0.77;;
80653;SDS011;70020;45.524;10.240;2023-08-06T15:57:10;0.52;;;0.52;;
80653;SDS011;70020;45.524;10.240;2023-08-06T15:59:35;3.50;;;1.00;;
80653;SDS011;70020;45.524;10.240;2023-08-06T16:02:01;3.70;;;1.00;;
80653;SDS011;70020;45.524;10.240;2023-08-06T16:04:31;2.72;;;0.68;;
80653;SDS011;70020;45.524;10.240;2023-08-06T16:06:57;1.17;;;0.50;;
80653;SDS011;70020;45.524;10.240;2023-08-06T16:09:22;0.73;;;0.57;;
80653;SDS011;70020;45.524;10.240;2023-08-06T16:11:48;0.93;;;0.73;;
80653;SDS011;70020;45.524;10.240;2023-08-06T16:14:15;1.67;;;0.60;;
80653;SDS011;70020;45.524;10.240;2023-08-06T16:16:40;1.33;;;0.60;;
80653;SDS011;70020;45.524;10.240;2023-08-06T16:19:07;1.30;;;0.63;;